Flight Track Log - Related Links

Times and Time Zones

All times are in EDT time to prevent confusion due to time zone crossing. See the VHT11 flight status page for this flight to view local times or setup timezone preferences in your user account.


Time Position Orientation Groundspeed Altitude Reporting Facility
EDT Latitude Longitude Course Direction KTS MPH feet Rate Location/Type
Sat 11:54:43 AM 36.0753 -115.1153 91° East 183 211 2,900  Level Los Angeles Center
Sat 11:56:08 AM 36.0736 -114.9986 91° East 266 306 5,200 2,178 Climbing Los Angeles Center
Sat 11:57:09 AM 36.0236 -114.9275 131° Southeast 280 322 8,200 2,719 Climbing Los Angeles Center
Sat 11:58:16 AM 35.9444 -114.9219 177° South 281 323 11,000 2,311 Climbing Los Angeles Center
Sat 11:59:11 AM 35.8908 -114.9928 227° Southwest 307 353 12,900 1,905 Climbing Los Angeles Center
Sat 12:00:22 PM 35.8278 -115.0811 229° Southwest 329 379 15,000 2,030 Climbing Los Angeles Center
Sat 12:01:24 PM 35.7594 -115.1778 229° Southwest 361 415 17,400 2,613 Climbing Los Angeles Center
Sat 12:02:26 PM 35.6747 -115.2975 229° Southwest 379 436 20,400 2,226 Climbing Los Angeles Center
Sat 12:03:28 PM 35.5989 -115.3983 227° Southwest 392 451 22,000 774 Climbing Los Angeles Center
Sat 12:04:30 PM 35.5175 -115.5108 228° Southwest 428 493 22,000  Level Los Angeles Center
Sat 12:05:32 PM 35.4444 -115.6083 227° Southwest 436 502 22,000  Level Los Angeles Center
Sat 12:06:35 PM 35.3478 -115.7383 228° Southwest 431 496 22,000  Level Los Angeles Center
Sat 12:07:49 PM 35.2664 -115.8456 227° Southwest 430 495 22,000  Level Los Angeles Center
Sat 12:08:51 PM 35.1692 -115.9722 227° Southwest 427 491 22,000  Level Los Angeles Center
Sat 12:09:53 PM 35.0892 -116.0808 228° Southwest 429 494 22,000  Level Los Angeles Center
Sat 12:10:55 PM 35.0508 -116.2194 251° West 430 495 22,000  Level Los Angeles Center
Sat 12:11:57 PM 35.0206 -116.3639 256° West 437 503 22,000 -242 Level Los Angeles Center
Sat 12:12:59 PM 34.9889 -116.5069 255° West 437 503 21,500 -768 Descending Los Angeles Center
Sat 12:14:02 PM 34.9489 -116.6853 255° West 450 518 20,400 -720 Descending Los Angeles Center
Sat 12:15:04 PM 34.9139 -116.8381 254° West 463 533 20,000 -194 Descending Los Angeles Center
Sat 12:16:06 PM 34.8806 -116.9864 255° West 457 526 20,000  Level Los Angeles Center
Sat 12:17:08 PM 34.8469 -117.1322 254° West 448 516 20,000  Level Los Angeles Center
Sat 12:18:10 PM 34.8139 -117.2767 254° West 441 507 20,000  Level Los Angeles Center
Sat 12:19:12 PM 34.7742 -117.4500 254° West 440 506 20,000 -339 Level Los Angeles Center
Sat 12:20:14 PM 34.7408 -117.5933 254° West 437 503 19,300 -1,645 Descending Los Angeles Center
Sat 12:21:16 PM 34.7058 -117.7411 254° West 450 518 16,600 -2,855 Descending Los Angeles Center
Sat 12:22:18 PM 34.6714 -117.8789 253° West 431 496 13,400 -2,758 Descending Los Angeles Center
Sat 12:23:20 PM 34.6386 -117.9978 252° West 374 430 10,900 -1,839 Descending Los Angeles Center
Sat 12:24:22 PM 34.6103 -118.1039 252° West 333 383 9,600 -1,248 Descending Los Angeles Center
Sat 12:25:25 PM 34.5831 -118.2064 252° West 295 339 8,300 -768 Descending Los Angeles Center
Sat 12:26:27 PM 34.5561 -118.2944 250° West 283 326 8,000 -48 Descending Los Angeles Center
Sat 12:27:29 PM 34.5258 -118.3831 247° West 285 328 8,200 -48 Climbing Los Angeles Center
Sat 12:28:31 PM 34.4908 -118.4878 248° West 283 326 7,900 -677 Descending Los Angeles Center
Sat 12:29:33 PM 34.4608 -118.5750 247° West 282 325 6,800 -919 Descending Los Angeles Center
Sat 12:30:35 PM 34.4336 -118.6564 248° West 266 306 6,000 -490 Descending Los Angeles Center
Sat 12:31:11 PM 34.4103 -118.7022 238° Southwest 255 293 6,000  Level Los Angeles Center
Sat 12:32:39 PM 34.3747 -118.8231 250° West 275 316 6,000 -50 Level Los Angeles Center
Sat 12:33:12 PM 34.3439 -118.8675 230° Southwest 262 302 5,900 -1,340 Descending Los Angeles Center
Sat 12:34:13 PM 34.3028 -118.9356 234° Southwest 241 277 3,900 -1,714 Descending Los Angeles Center
Sat 12:34:43 PM 34.2864 -118.9736 242° Southwest 248 285 3,300 -1,000 Descending Los Angeles Center
Sat 12:35:13 PM 34.2578 -118.9944 211° Southwest 231 266 2,900 -774 Descending Los Angeles Center
Sat 12:35:45 PM 34.2358 -119.0067 205° Southwest 227 261 2,500 -1,240 Descending Los Angeles Center
Sat 12:37:14 PM 34.2122 -119.0611 242° Southwest 119 137 400 -1,416 Descending Los Angeles Center
Sat 12:39:00 PM 34.2000 -119.0833 259° West  Level FlightAware Approximate

Login

Don't have an account? Register now (free) for customized features, flight alerts, and more!